Time;durP1;ratioP1;P1;durP2;ratioP2;P2;SDS_P1;SDS_P2;PMS_P1;PMS_P2;Temp;Humidity;BMP_temperature;BMP_pressure;BME280_temperature;BME280_humidity;BME280_pressure;Samples;Min_cycle;Max_cycle;Signal;HPM_P1;HPM_P2
2021/08/31 00:00:55;;;;;;;;;;;13.40;99.90;;;;;;5103084;28;20081;-64
2021/08/31 00:03:20;;;;;;;17.23;11.73;;;13.40;99.90;;;;;;5102262;28;20257;-63
2021/08/31 00:05:46;;;;;;;;;;;13.40;99.90;;;;;;5103391;28;20449;-64
2021/08/31 00:08:12;;;;;;;22.10;11.98;;;13.40;99.90;;;;;;5102830;28;19923;-64
2021/08/31 00:10:37;;;;;;;;;;;13.40;99.90;;;;;;5103662;28;20449;-63
2021/08/31 00:13:03;;;;;;;21.10;13.57;;;13.40;99.90;;;;;;5103044;28;20044;-64
2021/08/31 00:15:29;;;;;;;;;;;13.40;99.90;;;;;;5102538;28;20039;-64
2021/08/31 00:17:56;;;;;;;22.05;14.13;;;13.40;99.90;;;;;;5094121;28;20326;-64
2021/08/31 00:20:22;;;;;;;24.73;13.77;;;13.40;99.90;;;;;;5089221;28;20055;-63
2021/08/31 00:22:47;;;;;;;;;;;13.40;99.90;;;;;;5089901;28;20048;-64
2021/08/31 00:25:13;;;;;;;19.83;12.63;;;13.40;99.90;;;;;;5089364;28;20646;-64
2021/08/31 00:27:38;;;;;;;;;;;13.40;99.90;;;;;;5089096;28;20036;-63
2021/08/31 00:30:05;;;;;;;22.00;12.65;;;13.40;99.90;;;;;;5088713;28;19916;-64
2021/08/31 00:32:31;;;;;;;18.75;11.90;;;13.40;99.90;;;;;;5086101;28;20775;-64
2021/08/31 00:34:56;;;;;;;;;;;13.40;99.90;;;;;;5089563;28;20047;-63
2021/08/31 00:37:22;;;;;;;20.95;13.15;;;13.30;99.90;;;;;;5088719;28;20305;-64
2021/08/31 00:39:47;;;;;;;;;;;13.30;99.90;;;;;;5088945;28;20046;-63
2021/08/31 00:42:13;;;;;;;21.52;11.93;;;13.40;99.90;;;;;;5087839;28;19912;-64
2021/08/31 00:44:39;;;;;;;23.08;11.98;;;13.40;99.90;;;;;;5088703;28;20032;-64
2021/08/31 00:47:05;;;;;;;;;;;13.40;99.90;;;;;;5087801;28;20107;-64
2021/08/31 00:49:31;;;;;;;18.67;12.13;;;13.50;99.90;;;;;;5088550;28;19981;-64
2021/08/31 00:51:58;;;;;;;20.23;11.90;;;13.40;99.90;;;;;;5088746;28;20126;-64
2021/08/31 00:54:28;;;;;;;21.15;12.13;;;13.40;99.90;;;;;;5088871;28;20097;-64
2021/08/31 00:56:54;;;;;;;20.13;13.25;;;13.40;99.90;;;;;;5088370;28;20499;-63
2021/08/31 00:59:20;;;;;;;16.67;11.13;;;13.40;99.90;;;;;;5082789;28;20044;-64
2021/08/31 01:01:52;;;;;;;17.88;11.05;;;13.50;99.90;;;;;;5086966;28;20124;-64
2021/08/31 01:04:19;;;;;;;17.48;11.55;;;13.50;99.90;;;;;;5087916;28;20062;-64
2021/08/31 01:06:46;;;;;;;18.38;12.05;;;13.50;99.90;;;;;;5090739;28;20071;-64
2021/08/31 01:09:12;;;;;;;17.52;11.50;;;13.40;99.90;;;;;;5089177;28;20097;-65
2021/08/31 01:11:38;;;;;;;;;;;13.40;99.90;;;;;;5089693;28;20036;-65
2021/08/31 01:14:07;;;;;;;21.13;12.93;;;13.40;99.90;;;;;;5087732;28;19938;-65
2021/08/31 01:16:33;;;;;;;19.00;12.82;;;13.40;99.90;;;;;;5083303;28;20089;-65
2021/08/31 01:18:59;;;;;;;;;;;13.40;99.90;;;;;;5089262;28;20040;-65
2021/08/31 01:21:24;;;;;;;20.33;11.90;;;13.30;99.90;;;;;;5088578;28;20375;-65
2021/08/31 01:23:51;;;;;;;17.75;11.52;;;13.40;99.90;;;;;;5088587;28;20036;-65
2021/08/31 01:26:17;;;;;;;21.80;12.80;;;13.40;99.90;;;;;;5088039;28;20551;-65
2021/08/31 01:28:42;;;;;;;;;;;13.30;99.90;;;;;;5081852;28;20146;-65
2021/08/31 01:31:08;;;;;;;18.73;12.45;;;13.30;99.90;;;;;;5085533;28;19916;-64
2021/08/31 01:33:35;;;;;;;20.95;14.27;;;13.30;99.90;;;;;;5087841;28;20410;-65
2021/08/31 01:36:33;;;;;;;19.40;13.23;;;13.30;99.90;;;;;;5087535;28;20040;-65
2021/08/31 01:38:59;;;;;;;24.73;13.60;;;13.30;99.90;;;;;;5042264;28;20117;-65
2021/08/31 01:41:25;;;;;;;;;;;13.30;99.90;;;;;;5087957;28;20480;-65
2021/08/31 01:43:51;;;;;;;22.33;12.75;;;13.20;99.90;;;;;;5084251;28;19923;-65
2021/08/31 01:46:17;;;;;;;;;;;13.20;99.90;;;;;;5087013;28;20040;-65
2021/08/31 01:48:42;;;;;;;20.42;13.40;;;13.30;99.90;;;;;;5086988;28;20004;-65
2021/08/31 01:51:08;;;;;;;;;;;13.30;99.90;;;;;;5087419;28;20149;-63
2021/08/31 01:53:34;;;;;;;19.77;13.60;;;13.20;99.90;;;;;;5087488;28;19916;-64
2021/08/31 01:56:00;;;;;;;23.55;14.88;;;13.20;99.90;;;;;;5087025;28;20040;-65
2021/08/31 01:58:26;;;;;;;19.95;12.75;;;13.20;99.90;;;;;;5080814;28;20040;-65
2021/08/31 02:00:52;;;;;;;;;;;13.30;99.90;;;;;;5086513;28;20046;-65
2021/08/31 02:03:17;;;;;;;17.30;11.05;;;13.30;99.90;;;;;;5087273;28;19927;-65
2021/08/31 02:05:43;;;;;;;;;;;13.30;99.90;;;;;;5087506;28;20126;-65
2021/08/31 02:08:08;;;;;;;15.25;10.75;;;13.30;99.90;;;;;;5086632;28;19919;-65
2021/08/31 02:10:34;;;;;;;;;;;13.30;99.90;;;;;;5086923;28;20028;-65
2021/08/31 02:13:00;;;;;;;17.05;11.70;;;13.30;99.90;;;;;;5086023;28;19920;-65
2021/08/31 02:15:25;;;;;;;19.67;12.40;;;13.20;99.90;;;;;;5085919;28;20032;-65
2021/08/31 02:17:51;;;;;;;;;;;13.20;99.90;;;;;;5087224;28;20044;-65
2021/08/31 02:20:16;;;;;;;20.50;12.68;;;13.20;99.90;;;;;;5086112;28;19916;-65
2021/08/31 02:22:42;;;;;;;;;;;13.20;99.90;;;;;;5087379;28;20450;-65
2021/08/31 02:25:09;;;;;;;19.85;11.27;;;13.20;99.90;;;;;;5086117;28;19916;-64
2021/08/31 02:27:35;;;;;;;15.27;11.13;;;13.20;99.90;;;;;;5085669;28;20163;-65
2021/08/31 02:30:01;;;;;;;28.98;12.15;;;13.20;99.90;;;;;;5086085;28;20040;-65
2021/08/31 02:32:26;;;;;;;;;;;13.10;99.90;;;;;;5085763;28;20105;-65
2021/08/31 02:34:52;;;;;;;16.55;10.13;;;13.10;99.90;;;;;;5086789;28;20406;-65
2021/08/31 02:37:17;;;;;;;;;;;13.10;99.90;;;;;;5086284;28;20040;-64
2021/08/31 02:39:43;;;;;;;16.35;9.93;;;13.00;99.90;;;;;;5086441;28;19920;-65
2021/08/31 02:42:08;;;;;;;;;;;13.00;99.90;;;;;;5085374;28;20036;-65
2021/08/31 02:44:34;;;;;;;16.95;9.95;;;13.00;99.90;;;;;;5085993;28;20622;-65
2021/08/31 02:46:59;;;;;;;;;;;12.90;99.90;;;;;;5086545;28;20135;-65
2021/08/31 02:49:25;;;;;;;13.15;9.40;;;12.90;99.90;;;;;;5086087;28;19916;-65
2021/08/31 02:51:51;;;;;;;;;;;12.90;99.90;;;;;;5088308;28;20036;-65
2021/08/31 02:54:16;;;;;;;18.35;8.15;;;12.90;99.90;;;;;;5086949;28;19923;-64
2021/08/31 02:56:42;;;;;;;;;;;12.90;99.90;;;;;;5085864;28;20411;-65
2021/08/31 02:59:07;;;;;;;16.85;9.55;;;12.90;99.90;;;;;;5085437;28;19961;-65
2021/08/31 03:02:07;;;;;;;;;;;12.90;99.90;;;;;;5078629;28;20066;-65
2021/08/31 03:04:26;;;;;;;54.50;28.70;;;12.90;99.90;;;;;;5075591;28;19912;-65
2021/08/31 03:06:51;;;;;;;40.50;22.15;;;12.80;99.90;;;;;;5085408;28;20497;-65
2021/08/31 03:09:17;;;;;;;;;;;12.90;99.90;;;;;;5080837;28;20514;-65
2021/08/31 03:11:42;;;;;;;18.65;11.63;;;12.90;99.90;;;;;;5085585;28;20283;-65
2021/08/31 03:14:08;;;;;;;;;;;12.90;99.90;;;;;;5086266;28;20067;-65
2021/08/31 03:16:34;;;;;;;17.73;10.35;;;12.80;99.90;;;;;;5085303;28;20395;-64
2021/08/31 03:19:00;;;;;;;;;;;12.80;99.90;;;;;;5086305;28;20036;-64
2021/08/31 03:21:25;;;;;;;14.82;9.40;;;12.70;99.90;;;;;;5085872;28;20698;-64
2021/08/31 03:23:51;;;;;;;;;;;12.70;99.90;;;;;;5086271;28;20047;-65
2021/08/31 03:26:16;;;;;;;20.30;10.25;;;12.70;99.90;;;;;;5085178;28;19920;-65
2021/08/31 03:28:42;;;;;;;;;;;12.60;99.90;;;;;;5085904;28;20040;-65
2021/08/31 03:31:08;;;;;;;16.10;9.85;;;12.60;99.90;;;;;;5085067;28;19923;-65
2021/08/31 03:33:33;;;;;;;;;;;12.70;99.90;;;;;;5084015;28;20071;-65
2021/08/31 03:35:59;;;;;;;14.35;9.98;;;12.70;99.90;;;;;;5085145;28;19916;-65
2021/08/31 03:38:24;;;;;;;;;;;12.70;99.90;;;;;;5085979;28;20036;-65
2021/08/31 03:40:50;;;;;;;12.43;8.23;;;12.70;99.90;;;;;;5085465;28;19922;-65
2021/08/31 03:43:15;;;;;;;;;;;12.70;99.90;;;;;;5086469;28;20036;-65
2021/08/31 03:45:41;;;;;;;14.30;9.57;;;12.80;99.90;;;;;;5085160;28;19955;-65
2021/08/31 03:48:06;;;;;;;;;;;12.80;99.90;;;;;;5086455;28;20032;-65
2021/08/31 03:50:32;;;;;;;17.52;9.93;;;12.80;99.90;;;;;;5086002;28;19916;-65
2021/08/31 03:52:57;;;;;;;;;;;12.70;99.90;;;;;;5088606;28;20051;-65
2021/08/31 03:55:23;;;;;;;16.58;9.98;;;12.70;99.90;;;;;;5088724;28;20268;-65
2021/08/31 03:57:48;;;;;;;;;;;12.60;99.90;;;;;;5089825;28;20110;-65
2021/08/31 04:00:14;;;;;;;17.38;8.82;;;12.60;99.90;;;;;;5088646;28;20706;-65
2021/08/31 04:02:40;;;;;;;;;;;12.60;99.90;;;;;;5089975;28;20040;-65
2021/08/31 04:05:06;;;;;;;16.00;9.27;;;12.60;99.90;;;;;;5089315;28;19916;-66
2021/08/31 04:07:32;;;;;;;21.88;10.43;;;12.60;99.90;;;;;;5089388;28;20044;-65
2021/08/31 04:09:57;;;;;;;;;;;12.70;99.90;;;;;;5088959;28;20403;-68
2021/08/31 04:12:23;;;;;;;13.93;8.50;;;12.60;99.90;;;;;;5088795;28;19920;-69
2021/08/31 04:14:49;;;;;;;;;;;12.60;99.90;;;;;;5090217;28;20047;-66
2021/08/31 04:17:14;;;;;;;18.50;8.82;;;12.60;99.90;;;;;;5088105;28;19961;-65
2021/08/31 04:19:40;;;;;;;;;;;12.60;99.90;;;;;;5087355;28;20036;-65
2021/08/31 04:22:06;;;;;;;16.50;10.05;;;12.60;99.90;;;;;;5088437;28;20273;-63
2021/08/31 04:24:32;;;;;;;13.68;8.95;;;12.60;99.90;;;;;;5089364;28;20059;-65
2021/08/31 04:26:57;;;;;;;;;;;12.70;99.90;;;;;;5089606;28;20044;-66
2021/08/31 04:29:23;;;;;;;16.17;10.02;;;12.60;99.90;;;;;;5088284;28;19959;-65
2021/08/31 04:31:48;;;;;;;;;;;12.60;99.90;;;;;;5088680;28;20040;-65
2021/08/31 04:34:14;;;;;;;15.88;9.57;;;12.60;99.90;;;;;;5088814;28;19926;-65
2021/08/31 04:36:40;;;;;;;;;;;12.60;99.90;;;;;;5091785;28;20522;-68
2021/08/31 04:39:05;;;;;;;17.75;9.35;;;12.70;99.90;;;;;;5089154;28;19916;-63
2021/08/31 04:41:31;;;;;;;;;;;12.70;99.90;;;;;;5090672;28;20717;-66
2021/08/31 04:43:56;;;;;;;16.20;8.85;;;12.70;99.90;;;;;;5090347;28;19927;-67
2021/08/31 04:46:22;;;;;;;;;;;12.70;99.90;;;;;;5089677;28;20058;-68
2021/08/31 04:48:48;;;;;;;23.75;10.50;;;12.70;99.90;;;;;;5088433;28;20730;-64
2021/08/31 04:51:13;;;;;;;;;;;12.70;99.90;;;;;;5090616;28;20043;-64
2021/08/31 04:53:39;;;;;;;31.00;10.52;;;12.80;99.90;;;;;;5089303;28;20676;-64
2021/08/31 04:56:04;;;;;;;;;;;12.70;99.90;;;;;;5089839;28;20122;-63
2021/08/31 04:58:30;;;;;;;24.95;10.00;;;12.80;99.90;;;;;;5088731;28;19947;-65
2021/08/31 05:00:55;;;;;;;;;;;12.70;99.90;;;;;;5088827;28;20036;-65
2021/08/31 05:03:21;;;;;;;16.83;10.35;;;12.70;99.90;;;;;;5088018;28;19920;-64
2021/08/31 05:05:47;;;;;;;;;;;12.80;99.90;;;;;;5088611;28;20046;-62
2021/08/31 05:08:12;;;;;;;24.73;16.33;;;12.80;99.90;;;;;;5088293;28;19970;-67
2021/08/31 05:10:38;;;;;;;;;;;12.90;99.90;;;;;;5089322;28;20059;-67
2021/08/31 05:13:03;;;;;;;57.15;32.13;;;12.80;99.90;;;;;;5085642;28;20390;-64
2021/08/31 05:15:29;;;;;;;;;;;12.90;99.90;;;;;;5088255;28;20061;-65
2021/08/31 05:17:55;;;;;;;46.88;23.65;;;12.90;99.90;;;;;;5087539;28;19919;-64
2021/08/31 05:20:22;;;;;;;75.15;40.58;;;12.90;99.90;;;;;;5087700;28;20047;-64
2021/08/31 05:22:51;;;;;;;34.83;16.60;;;12.90;99.90;;;;;;5087236;28;20442;-64
2021/08/31 05:25:18;;;;;;;30.10;15.63;;;13.00;99.90;;;;;;5087919;28;20046;-63
2021/08/31 05:27:43;;;;;;;24.27;14.63;;;12.90;99.90;;;;;;5087104;28;20089;-64
2021/08/31 05:30:09;;;;;;;;;;;13.00;99.90;;;;;;5086948;28;20051;-65
2021/08/31 05:32:34;;;;;;;33.17;18.85;;;13.00;99.90;;;;;;5070863;28;19927;-64
2021/08/31 05:35:00;;;;;;;;;;;13.00;99.90;;;;;;5067887;28;20028;-64
2021/08/31 05:37:25;;;;;;;50.90;25.55;;;13.00;99.90;;;;;;5067706;28;20419;-64
2021/08/31 05:39:51;;;;;;;;;;;13.00;99.90;;;;;;5067603;28;20601;-64
2021/08/31 05:42:17;;;;;;;24.70;13.20;;;13.00;99.90;;;;;;5067500;28;19977;-64
2021/08/31 05:44:42;;;;;;;;;;;13.00;99.90;;;;;;5085796;28;20438;-64
2021/08/31 05:47:08;;;;;;;30.48;14.55;;;13.00;99.90;;;;;;5086584;28;19920;-64
2021/08/31 05:49:34;;;;;;;;;;;13.00;99.90;;;;;;5088475;28;20096;-64
2021/08/31 05:52:00;;;;;;;20.90;11.95;;;13.10;99.90;;;;;;5087227;28;19923;-63
2021/08/31 05:54:26;;;;;;;29.42;13.23;;;13.10;99.90;;;;;;5087860;28;20488;-64
2021/08/31 05:57:01;;;;;;;22.98;13.32;;;13.10;99.90;;;;;;5087300;28;20042;-64
2021/08/31 05:59:26;;;;;;;19.00;13.45;;;13.20;99.90;;;;;;5079172;28;20040;-64
2021/08/31 06:01:52;;;;;;;;;;;13.20;99.90;;;;;;5084417;28;20043;-64
2021/08/31 06:04:21;;;;;;;20.60;12.45;;;13.20;99.90;;;;;;5086821;28;20011;-64
2021/08/31 06:06:47;;;;;;;29.73;14.90;;;13.20;99.90;;;;;;5087708;28;20122;-64
2021/08/31 06:09:13;;;;;;;;;;;13.20;99.90;;;;;;5087367;28;20118;-64
2021/08/31 06:11:39;;;;;;;20.95;12.20;;;13.10;99.90;;;;;;5087067;28;19916;-64
2021/08/31 06:14:08;;;;;;;24.85;13.95;;;13.20;99.90;;;;;;5086504;28;20044;-64
2021/08/31 06:16:34;;;;;;;20.77;13.80;;;13.20;99.90;;;;;;5085328;28;20044;-64
2021/08/31 06:19:00;;;;;;;;;;;13.20;99.90;;;;;;5082922;28;20051;-64
2021/08/31 06:21:27;;;;;;;27.27;13.65;;;13.20;99.90;;;;;;5074481;28;20408;-64
2021/08/31 06:23:53;;;;;;;33.95;19.60;;;13.20;99.90;;;;;;5076608;28;20036;-64
2021/08/31 06:26:18;;;;;;;;;;;13.30;99.90;;;;;;5074354;28;20047;-65
2021/08/31 06:28:44;;;;;;;87.32;53.67;;;13.30;99.90;;;;;;5060292;28;19923;-64
2021/08/31 06:31:10;;;;;;;;;;;13.30;99.90;;;;;;5080756;28;20069;-63
2021/08/31 06:33:35;;;;;;;36.92;23.48;;;13.30;99.90;;;;;;5087333;28;19965;-63
2021/08/31 06:36:02;;;;;;;;;;;13.40;99.90;;;;;;5087469;28;20124;-63
2021/08/31 06:38:28;;;;;;;40.27;17.33;;;13.40;99.90;;;;;;5085776;28;19930;-64
2021/08/31 06:40:53;;;;;;;;;;;13.50;99.90;;;;;;5087184;28;20271;-63
2021/08/31 06:43:19;;;;;;;24.80;15.07;;;13.40;99.90;;;;;;5086634;28;19927;-63
2021/08/31 06:45:45;;;;;;;;;;;13.40;99.90;;;;;;5086189;28;20071;-63
2021/08/31 06:48:10;;;;;;;34.78;18.55;;;13.40;99.90;;;;;;5086593;28;19920;-62
2021/08/31 06:50:36;;;;;;;;;;;13.50;99.90;;;;;;5087790;28;20415;-64
2021/08/31 06:53:01;;;;;;;40.30;15.75;;;13.50;99.90;;;;;;5086992;28;20360;-63
2021/08/31 06:55:27;;;;;;;;;;;13.50;99.90;;;;;;5087711;28;20648;-63
2021/08/31 06:57:53;;;;;;;23.75;15.05;;;13.60;99.90;;;;;;5081327;28;19927;-59
2021/08/31 07:00:18;;;;;;;;;;;13.60;99.90;;;;;;5084690;28;20040;-63
2021/08/31 07:02:44;;;;;;;21.13;13.07;;;13.60;99.90;;;;;;5086273;28;19916;-63
2021/08/31 07:05:10;;;;;;;;;;;13.70;99.90;;;;;;5082996;28;20500;-64
2021/08/31 07:07:35;;;;;;;26.75;14.50;;;13.70;99.90;;;;;;5086476;28;19955;-63
2021/08/31 07:10:01;;;;;;;;;;;13.70;99.90;;;;;;5086541;28;20043;-63
2021/08/31 07:12:27;;;;;;;23.00;12.48;;;13.80;99.90;;;;;;5086769;28;20016;-62
2021/08/31 07:14:53;;;;;;;;;;;13.80;99.90;;;;;;5086409;28;20455;-65
2021/08/31 07:17:19;;;;;;;27.23;14.55;;;13.80;99.90;;;;;;5082223;28;19947;-63
2021/08/31 07:19:44;;;;;;;;;;;13.80;99.90;;;;;;5086265;28;20111;-64
2021/08/31 07:22:10;;;;;;;21.45;12.10;;;13.90;99.90;;;;;;5083681;28;19960;-63
2021/08/31 07:24:35;;;;;;;;;;;13.90;99.90;;;;;;5086325;28;20040;-63
2021/08/31 07:27:01;;;;;;;19.00;12.02;;;14.10;99.90;;;;;;5086252;28;19942;-63
2021/08/31 07:29:27;;;;;;;;;;;14.10;99.90;;;;;;5090194;28;20055;-64
2021/08/31 07:31:53;;;;;;;20.10;11.10;;;14.20;99.90;;;;;;5088611;28;19944;-64
2021/08/31 07:34:19;;;;;;;17.13;11.43;;;14.20;99.90;;;;;;5090054;28;20047;-63
2021/08/31 07:36:45;;;;;;;;;;;14.20;99.90;;;;;;5089195;28;20044;-64
2021/08/31 07:39:12;;;;;;;18.52;11.90;;;14.20;99.90;;;;;;5090459;28;19923;-64
2021/08/31 07:41:38;;;;;;;17.42;11.40;;;14.20;99.90;;;;;;5090074;28;20048;-65
2021/08/31 07:44:03;;;;;;;;;;;14.20;99.90;;;;;;5092464;28;20039;-65
2021/08/31 07:46:29;;;;;;;22.23;12.20;;;14.20;99.90;;;;;;5088220;28;19927;-64
2021/08/31 07:48:55;;;;;;;;;;;14.10;99.90;;;;;;5091421;28;20105;-64
2021/08/31 07:51:21;;;;;;;21.95;12.52;;;14.20;99.90;;;;;;5092421;28;19966;-65
2021/08/31 07:53:46;;;;;;;;;;;14.20;99.90;;;;;;5091997;28;20328;-64
2021/08/31 07:56:12;;;;;;;21.80;13.32;;;14.20;99.90;;;;;;5092748;28;20383;-64
2021/08/31 07:58:38;;;;;;;;;;;14.20;99.90;;;;;;5086752;28;20048;-64
2021/08/31 08:01:04;;;;;;;22.80;14.63;;;14.30;99.90;;;;;;5090960;28;19947;-64
2021/08/31 08:03:30;;;;;;;28.05;16.08;;;14.30;99.90;;;;;;5093271;28;20138;-64
2021/08/31 08:05:55;;;;;;;;;;;14.20;99.90;;;;;;5091663;28;20155;-64
2021/08/31 08:08:21;;;;;;;22.48;14.25;;;14.10;99.90;;;;;;5091848;28;19916;-64
2021/08/31 08:10:46;;;;;;;;;;;14.20;99.90;;;;;;5092553;28;20039;-64
2021/08/31 08:13:12;;;;;;;29.50;15.68;;;14.40;99.90;;;;;;5091110;28;20041;-64
2021/08/31 08:15:38;;;;;;;;;;;14.60;99.90;;;;;;5091161;28;20085;-64
2021/08/31 08:18:04;;;;;;;17.00;11.32;;;15.70;99.90;;;;;;5090783;28;19937;-64
2021/08/31 08:20:30;;;;;;;18.80;12.00;;;16.90;99.90;;;;;;5090212;28;20040;-64
2021/08/31 08:22:56;;;;;;;19.08;12.27;;;16.70;99.90;;;;;;5090107;28;20393;-64
2021/08/31 08:25:21;;;;;;;;;;;16.20;99.90;;;;;;5089617;28;20737;-64
2021/08/31 08:27:47;;;;;;;19.20;11.77;;;16.30;99.90;;;;;;5089117;28;19958;-65
2021/08/31 08:30:12;;;;;;;;;;;15.90;99.90;;;;;;5088858;28;20053;-64
2021/08/31 08:32:38;;;;;;;18.85;12.23;;;15.60;99.90;;;;;;5088761;28;20102;-64
2021/08/31 08:35:06;;;;;;;22.50;12.63;;;15.70;99.90;;;;;;5089801;28;20036;-64
2021/08/31 08:37:31;;;;;;;19.85;12.95;;;15.80;99.90;;;;;;5087798;28;20040;-64
2021/08/31 08:39:57;;;;;;;;;;;15.70;99.90;;;;;;5088017;28;20074;-64
2021/08/31 08:42:23;;;;;;;17.88;11.23;;;15.30;99.90;;;;;;5086021;28;19962;-64
2021/08/31 08:44:48;;;;;;;;;;;15.30;99.90;;;;;;5087527;28;20043;-64
2021/08/31 08:47:14;;;;;;;21.52;13.20;;;15.20;99.90;;;;;;5082065;28;19927;-65
2021/08/31 08:49:43;;;;;;;23.42;12.07;;;15.20;99.90;;;;;;5087414;28;20036;-65
2021/08/31 08:52:09;;;;;;;23.38;13.07;;;15.30;99.90;;;;;;5081645;28;20039;-64
2021/08/31 08:54:35;;;;;;;;;;;15.20;99.90;;;;;;5089131;28;20519;-64
2021/08/31 08:57:00;;;;;;;21.95;14.05;;;15.20;99.90;;;;;;5088919;28;19992;-64
2021/08/31 08:59:26;;;;;;;;;;;15.10;99.90;;;;;;5083819;28;20575;-64
2021/08/31 09:01:54;;;;;;;21.90;12.88;;;15.00;99.90;;;;;;5087552;28;19977;-65
2021/08/31 09:04:44;;;;;;;21.10;12.93;;;14.90;99.90;;;;;;5086252;28;20055;-64
2021/08/31 09:07:24;;;;;;;25.65;12.80;;;15.00;99.90;;;;;;5088191;28;20159;-64
2021/08/31 09:10:10;;;;;;;17.52;11.88;;;15.20;99.90;;;;;;5088530;28;20036;-62
2021/08/31 09:12:36;;;;;;;19.15;12.15;;;15.30;99.90;;;;;;5088814;28;20170;-64
2021/08/31 09:15:24;;;;;;;17.77;11.10;;;15.30;99.90;;;;;;5088554;28;20043;-64
2021/08/31 09:18:05;;;;;;;19.02;11.20;;;15.60;99.90;;;;;;5087995;28;20131;-64
2021/08/31 09:20:33;;;;;;;20.95;12.80;;;15.60;99.90;;;;;;5085774;28;20052;-64
2021/08/31 09:22:58;;;;;;;23.23;13.45;;;15.70;99.90;;;;;;5088257;28;20044;-64
2021/08/31 09:25:31;;;;;;;;;;;15.70;99.90;;;;;;5089090;28;20093;-64
2021/08/31 09:27:57;;;;;;;21.52;12.90;;;15.80;99.90;;;;;;5087445;28;19926;-63
2021/08/31 09:30:23;;;;;;;;;;;15.80;99.90;;;;;;5087955;28;20135;-64
2021/08/31 09:33:09;;;;;;;21.50;12.30;;;15.80;99.90;;;;;;5087927;28;19982;-64
2021/08/31 09:35:37;;;;;;;21.00;11.60;;;16.00;99.90;;;;;;5087266;28;20032;-64
2021/08/31 09:38:08;;;;;;;22.77;11.05;;;16.20;99.90;;;;;;5087819;28;20447;-64
2021/08/31 09:40:43;;;;;;;19.00;10.77;;;16.30;99.90;;;;;;5086564;28;20487;-64
2021/08/31 09:43:15;;;;;;;19.67;11.05;;;16.30;99.90;;;;;;5089169;28;20101;-65
2021/08/31 09:45:42;;;;;;;18.13;10.50;;;16.40;99.90;;;;;;5088269;28;20040;-64
2021/08/31 09:48:10;;;;;;;18.30;10.35;;;16.50;99.90;;;;;;5087381;28;20046;-65
2021/08/31 09:50:50;;;;;;;21.33;10.02;;;16.40;99.90;;;;;;5087106;28;20040;-64
2021/08/31 09:53:18;;;;;;;17.48;9.57;;;16.40;99.90;;;;;;5084697;28;20036;-64
2021/08/31 09:55:46;;;;;;;26.67;9.75;;;16.40;99.90;;;;;;5087635;28;20040;-64
2021/08/31 09:58:14;;;;;;;14.65;8.90;;;16.40;99.90;;;;;;5081859;28;20041;-65
2021/08/31 10:00:42;;;;;;;16.00;9.82;;;16.50;99.90;;;;;;5079001;28;20032;-65
2021/08/31 10:03:08;;;;;;;14.02;9.18;;;16.50;99.90;;;;;;5085854;28;20048;-64
2021/08/31 10:05:34;;;;;;;;;;;16.70;99.90;;;;;;5074835;28;20569;-64
2021/08/31 10:08:02;;;;;;;13.80;7.78;;;16.80;99.90;;;;;;5075907;28;20014;-63
2021/08/31 10:10:30;;;;;;;13.93;7.43;;;16.90;99.90;;;;;;5074208;28;20511;-63
2021/08/31 10:12:57;;;;;;;12.27;7.25;;;17.00;99.90;;;;;;5074990;28;20097;-63
2021/08/31 10:15:23;;;;;;;18.42;7.25;;;17.20;99.90;;;;;;5073888;28;20109;-64
2021/08/31 10:17:52;;;;;;;;;;;17.10;99.90;;;;;;5074587;28;20485;-65
2021/08/31 10:20:22;;;;;;;14.25;6.97;;;17.10;99.90;;;;;;5077524;28;19916;-64
2021/08/31 10:22:48;;;;;;;11.95;7.20;;;17.10;99.90;;;;;;5081362;28;20089;-64
2021/08/31 10:25:14;;;;;;;;;;;16.80;99.90;;;;;;5086987;28;20032;-64
2021/08/31 10:27:42;;;;;;;11.73;7.00;;;16.90;99.90;;;;;;5086623;28;19966;-64
2021/08/31 10:30:22;;;;;;;12.48;7.40;;;17.00;99.90;;;;;;5086523;28;20391;-65
2021/08/31 10:32:57;;;;;;;12.00;6.57;;;17.20;99.90;;;;;;5086463;28;20392;-64
2021/08/31 10:35:32;;;;;;;12.40;7.30;;;17.20;99.90;;;;;;5086829;28;20060;-64
2021/08/31 10:37:59;;;;;;;12.85;6.95;;;17.30;99.90;;;;;;5086488;28;20046;-64
2021/08/31 10:40:33;;;;;;;11.82;7.57;;;17.40;99.90;;;;;;5086722;28;20123;-63
2021/08/31 10:43:04;;;;;;;12.18;7.03;;;17.50;99.90;;;;;;5087065;28;20040;-63
2021/08/31 10:45:35;;;;;;;12.55;6.75;;;17.40;99.90;;;;;;5086152;28;20063;-67
2021/08/31 10:48:20;;;;;;;9.40;5.95;;;17.50;99.90;;;;;;5086386;28;20048;-64
2021/08/31 10:50:48;;;;;;;13.43;7.28;;;17.60;99.90;;;;;;5086575;28;20404;-64
2021/08/31 10:53:38;;;;;;;13.95;7.65;;;17.70;99.90;;;;;;5086420;28;20169;-63
2021/08/31 10:56:22;;;;;;;10.45;7.03;;;17.50;99.90;;;;;;5086851;28;20092;-63
2021/08/31 10:58:53;;;;;;;13.55;7.40;;;17.50;99.90;;;;;;5075263;28;20731;-64
2021/08/31 11:01:20;;;;;;;13.68;6.57;;;17.30;99.90;;;;;;5077369;28;20447;-64
2021/08/31 11:03:47;;;;;;;9.55;6.18;;;17.30;99.90;;;;;;5085001;28;20048;-64
2021/08/31 11:06:34;;;;;;;11.38;5.80;;;17.40;99.90;;;;;;5086043;28;20496;-64
2021/08/31 11:09:14;;;;;;;9.63;5.90;;;17.50;99.90;;;;;;5068684;28;20040;-63
2021/08/31 11:11:46;;;;;;;12.73;5.38;;;17.50;99.90;;;;;;5074530;28;20040;-62
2021/08/31 11:14:13;;;;;;;11.05;6.43;;;17.80;99.90;;;;;;5073155;28;20043;-66
2021/08/31 11:16:39;;;;;;;10.90;6.28;;;17.60;99.90;;;;;;5070171;28;20420;-61
2021/08/31 11:19:20;;;;;;;;;;;17.20;99.90;;;;;;5083417;28;20040;-62
2021/08/31 11:21:47;;;;;;;9.10;5.18;;;17.30;99.90;;;;;;5071682;28;19916;-62
2021/08/31 11:24:13;;;;;;;10.02;5.47;;;17.50;99.90;;;;;;5066197;28;20056;-64
2021/08/31 11:26:38;;;;;;;10.35;6.88;;;17.60;99.90;;;;;;5065499;28;20503;-63
2021/08/31 11:29:08;;;;;;;;;;;17.70;99.90;;;;;;5076932;28;20127;-63
2021/08/31 11:31:34;;;;;;;8.82;5.55;;;17.70;99.90;;;;;;5085508;28;19923;-62
2021/08/31 11:33:59;;;;;;;;;;;17.80;99.90;;;;;;5087065;28;20496;-63
2021/08/31 11:36:28;;;;;;;8.55;4.72;;;17.80;99.90;;;;;;5086773;28;19915;-62
2021/08/31 11:39:01;;;;;;;12.30;6.15;;;17.90;99.90;;;;;;5086290;28;20084;-62
2021/08/31 11:41:43;;;;;;;8.82;5.35;;;18.10;99.90;;;;;;5086292;28;20047;-62
2021/08/31 11:44:21;;;;;;;8.93;5.50;;;18.20;99.90;;;;;;5081417;28;20544;-62
2021/08/31 11:46:49;;;;;;;9.38;5.88;;;18.40;99.90;;;;;;5078463;28;20048;-63
2021/08/31 11:49:31;;;;;;;15.80;6.07;;;18.10;99.90;;;;;;5085846;28;20036;-63
2021/08/31 11:51:58;;;;;;;8.63;5.22;;;17.90;99.90;;;;;;5085355;28;20040;-63
2021/08/31 11:54:26;;;;;;;8.77;5.30;;;17.60;99.90;;;;;;5086219;28;20048;-63
2021/08/31 11:56:56;;;;;;;7.65;4.82;;;17.60;99.90;;;;;;5086156;28;20165;-63
2021/08/31 11:59:43;;;;;;;8.00;4.50;;;17.70;99.90;;;;;;5080157;28;20123;-63
2021/08/31 12:02:18;;;;;;;9.70;5.30;;;17.70;99.90;;;;;;5085158;28;20074;-63
2021/08/31 12:05:06;;;;;;;8.43;5.07;;;17.70;99.90;;;;;;5085821;28;20484;-63
2021/08/31 12:07:36;;;;;;;10.25;5.10;;;17.60;99.30;;;;;;5085880;28;20143;-63
2021/08/31 12:10:04;;;;;;;10.20;5.68;;;17.70;99.90;;;;;;5085460;28;20044;-63
2021/08/31 12:12:30;;;;;;;8.82;4.97;;;17.80;99.90;;;;;;5085438;28;20098;-62
2021/08/31 12:14:56;;;;;;;6.85;4.38;;;17.80;99.90;;;;;;5088603;28;20086;-64
2021/08/31 12:17:37;;;;;;;9.90;5.38;;;17.80;98.70;;;;;;5084936;28;20044;-65
2021/08/31 12:20:18;;;;;;;6.93;4.50;;;17.80;99.10;;;;;;5085688;28;20131;-64
2021/08/31 12:22:49;;;;;;;7.72;4.43;;;18.00;99.60;;;;;;5088691;28;20119;-64
2021/08/31 12:25:18;;;;;;;11.95;6.28;;;18.20;99.90;;;;;;5086806;28;20044;-63
2021/08/31 12:27:46;;;;;;;10.90;6.03;;;18.00;99.90;;;;;;5087128;28;20067;-63
2021/08/31 12:30:16;;;;;;;13.40;6.90;;;18.10;99.90;;;;;;5087408;28;20082;-63
2021/08/31 12:32:42;;;;;;;10.40;5.70;;;18.00;99.90;;;;;;5088537;28;20131;-63
2021/08/31 12:35:31;;;;;;;;;;;17.90;99.60;;;;;;5088678;28;20216;-63
2021/08/31 12:38:04;;;;;;;10.98;6.32;;;17.90;99.90;;;;;;5088109;28;20375;-63
2021/08/31 12:40:30;;;;;;;9.32;6.28;;;18.00;99.90;;;;;;5087964;28;20047;-63
2021/08/31 12:43:11;;;;;;;;;;;18.00;99.90;;;;;;5088269;28;20059;-62
2021/08/31 12:45:38;;;;;;;7.47;5.20;;;18.10;99.90;;;;;;5087041;28;19922;-63
2021/08/31 12:48:06;;;;;;;11.88;5.60;;;18.20;99.90;;;;;;5087366;28;20040;-63
2021/08/31 12:50:32;;;;;;;10.18;6.05;;;18.00;99.30;;;;;;5087937;28;20043;-63
2021/08/31 12:52:58;;;;;;;9.02;5.65;;;17.70;99.40;;;;;;5088721;28;20058;-63
2021/08/31 12:55:28;;;;;;;;;;;17.70;99.90;;;;;;5087955;28;20036;-63
2021/08/31 12:57:54;;;;;;;10.65;6.32;;;17.30;99.90;;;;;;5085880;28;19920;-62
2021/08/31 13:00:21;;;;;;;;;;;17.40;99.90;;;;;;5087939;28;20169;-63
2021/08/31 13:02:48;;;;;;;16.08;7.50;;;17.40;99.90;;;;;;5088003;28;20696;-63
2021/08/31 13:05:15;;;;;;;9.82;5.80;;;17.40;99.90;;;;;;5087422;28;20101;-63